Terminal Aerodrome Forecast
Issued by NWS Buffalo, NY

Home | Current Version | Previous Version | Text Only | Print | Product List | Glossary On
Versions: 1 2 3 4 5 6 7 8 9 10 11 12 13 14 15 16 17 18 19 20 21 22 23 24 25 26 27 28 29 30
000
FTUS41 KBUF 050719 AAA
TAFART
TAF AMD
KART 050719Z 0507/0606 VRB03KT 3SM BR BKN070
      TEMPO 0507/0511 3/4SM BR
     FM051200 05005KT P6SM BKN045
      TEMPO 0514/0517 BKN030
     FM051700 03012KT P6SM BKN045
     FM060000 03008KT P6SM BKN045
     FM060300 04005KT P6SM BKN060=

USA.gov is the U.S. government's official web portal to all federal, state and local government web resources and services.